Time,TemperatureF,DewpointF,PressureIn,WindDirection,WindDirectionDegrees,WindSpeedMPH,WindSpeedGustMPH,Humidity,HourlyPrecipIn,Conditions,Clouds,dailyrainin,SoftwareType,DateUTC
2013-07-30 00:13:00,56.8,53.0,30.00,SE,132,0.0,0.0,86,0.00,,,0.00,weatherlink.com 1.10,2013-07-30 07:13:00,
2013-07-30 00:28:00,56.2,52.0,30.00,SE,132,0.0,0.0,86,0.00,,,0.00,weatherlink.com 1.10,2013-07-30 07:28:00,
2013-07-30 00:43:00,55.5,52.0,30.01,SE,132,0.0,0.0,88,0.00,,,0.00,weatherlink.com 1.10,2013-07-30 07:43:00,
2013-07-30 00:58:00,54.8,52.0,30.01,SE,134,0.0,0.0,89,0.00,,,0.00,weatherlink.com 1.10,2013-07-30 07:58:00,
2013-07-30 01:14:00,54.3,52.0,30.02,SE,134,0.0,0.0,90,0.00,,,0.00,weatherlink.com 1.10,2013-07-30 08:14:00,
2013-07-30 01:29:00,53.7,51.0,30.02,SE,134,0.0,0.0,90,0.00,,,0.00,weatherlink.com 1.10,2013-07-30 08:29:00,
2013-07-30 01:44:00,53.2,50.0,30.02,SE,134,0.0,0.0,90,0.00,,,0.00,weatherlink.com 1.10,2013-07-30 08:44:00,
2013-07-30 01:59:00,52.8,50.0,30.02,SE,134,0.0,0.0,91,0.00,,,0.00,weatherlink.com 1.10,2013-07-30 08:59:00,
2013-07-30 02:14:00,52.3,50.0,30.03,SE,134,0.0,0.0,91,0.00,,,0.00,weatherlink.com 1.10,2013-07-30 09:14:00,
2013-07-30 02:29:00,51.9,49.0,30.03,SE,134,0.0,0.0,91,0.00,,,0.00,weatherlink.com 1.10,2013-07-30 09:29:00,
2013-07-30 02:44:00,51.4,49.0,30.04,SE,134,0.0,0.0,91,0.00,,,0.00,weatherlink.com 1.10,2013-07-30 09:44:00,
2013-07-30 02:59:00,51.2,49.0,30.04,SE,134,0.0,0.0,92,0.00,,,0.00,weatherlink.com 1.10,2013-07-30 09:59:00,
2013-07-30 03:14:00,50.9,49.0,30.04,SE,134,0.0,0.0,92,0.00,,,0.00,weatherlink.com 1.10,2013-07-30 10:14:00,
2013-07-30 03:29:00,50.4,48.0,30.05,SE,134,0.0,0.0,92,0.00,,,0.00,weatherlink.com 1.10,2013-07-30 10:29:00,
2013-07-30 03:44:00,50.2,48.0,30.05,SE,134,0.0,0.0,92,0.00,,,0.00,weatherlink.com 1.10,2013-07-30 10:44:00,
2013-07-30 03:59:00,50.2,48.0,30.05,SE,134,0.0,0.0,93,0.00,,,0.00,weatherlink.com 1.10,2013-07-30 10:59:00,
2013-07-30 04:14:00,50.3,48.0,30.06,SE,134,0.0,0.0,93,0.00,,,0.00,weatherlink.com 1.10,2013-07-30 11:14:00,
2013-07-30 04:29:00,50.4,49.0,30.06,SE,134,0.0,0.0,94,0.00,,,0.00,weatherlink.com 1.10,2013-07-30 11:29:00,
2013-07-30 04:44:00,50.5,49.0,30.06,SE,134,0.0,0.0,94,0.00,,,0.00,weatherlink.com 1.10,2013-07-30 11:44:00,
2013-07-30 04:59:00,50.6,49.0,30.06,SE,134,0.0,0.0,94,0.00,,,0.00,weatherlink.com 1.10,2013-07-30 11:59:00,
2013-07-30 05:14:00,50.6,49.0,30.07,SE,134,0.0,0.0,94,0.00,,,0.00,weatherlink.com 1.10,2013-07-30 12:14:00,
2013-07-30 05:29:00,50.5,49.0,30.07,SE,134,0.0,0.0,94,0.00,,,0.00,weatherlink.com 1.10,2013-07-30 12:29:00,
2013-07-30 05:44:00,50.6,49.0,30.07,SE,134,0.0,0.0,94,0.00,,,0.00,weatherlink.com 1.10,2013-07-30 12:44:00,
2013-07-30 05:59:00,50.7,49.0,30.08,SE,134,0.0,0.0,94,0.00,,,0.00,weatherlink.com 1.10,2013-07-30 12:59:00,
2013-07-30 06:14:00,50.8,49.0,30.08,SE,134,0.0,0.0,94,0.00,,,0.00,weatherlink.com 1.10,2013-07-30 13:14:00,
2013-07-30 06:29:00,51.1,50.0,30.09,SE,134,0.0,0.0,94,0.00,,,0.00,weatherlink.com 1.10,2013-07-30 13:29:00,
2013-07-30 06:44:00,51.5,50.0,30.09,SE,134,0.0,0.0,95,0.00,,,0.00,weatherlink.com 1.10,2013-07-30 13:44:00,
2013-07-30 06:59:00,52.1,51.0,30.10,SE,134,0.0,0.0,95,0.00,,,0.00,weatherlink.com 1.10,2013-07-30 13:59:00,
2013-07-30 07:14:00,53.2,52.0,30.10,SE,132,0.0,0.0,95,0.00,,,0.00,weatherlink.com 1.10,2013-07-30 14:14:00,
2013-07-30 07:29:00,54.3,53.0,30.10,SE,133,0.0,0.0,95,0.00,,,0.00,weatherlink.com 1.10,2013-07-30 14:29:00,
2013-07-30 07:44:00,55.8,54.0,30.11,SE,132,0.0,0.0,93,0.00,,,0.00,weatherlink.com 1.10,2013-07-30 14:44:00,
2013-07-30 07:59:00,57.1,55.0,30.11,SE,133,0.0,0.0,92,0.00,,,0.00,weatherlink.com 1.10,2013-07-30 14:59:00,
2013-07-30 08:15:00,58.8,56.0,30.11,SE,132,0.0,0.0,90,0.00,,,0.00,weatherlink.com 1.10,2013-07-30 15:15:00,
2013-07-30 08:30:00,60.7,57.0,30.11,SE,133,0.0,0.0,87,0.00,,,0.00,weatherlink.com 1.10,2013-07-30 15:30:00,
2013-07-30 08:45:00,61.9,57.0,30.11,SE,132,0.0,0.0,84,0.00,,,0.00,weatherlink.com 1.10,2013-07-30 15:45:00,
2013-07-30 09:00:00,63.0,56.0,30.11,SE,134,0.0,0.0,79,0.00,,,0.00,weatherlink.com 1.10,2013-07-30 16:00:00,
2013-07-30 09:15:00,64.8,56.0,30.11,SE,134,0.0,0.0,74,0.00,,,0.00,weatherlink.com 1.10,2013-07-30 16:15:00,
2013-07-30 09:30:00,66.6,57.0,30.11,ESE,117,0.0,0.0,71,0.00,,,0.00,weatherlink.com 1.10,2013-07-30 16:30:00,
2013-07-30 09:45:00,67.2,57.0,30.10,SE,142,0.0,0.0,70,0.00,,,0.00,weatherlink.com 1.10,2013-07-30 16:45:00,
2013-07-30 10:00:00,68.0,58.0,30.10,SE,142,0.0,0.0,70,0.00,,,0.00,weatherlink.com 1.10,2013-07-30 17:00:00,
2013-07-30 10:15:00,69.2,58.0,30.10,SE,129,0.0,0.0,67,0.00,,,0.00,weatherlink.com 1.10,2013-07-30 17:15:00,
2013-07-30 10:30:00,71.4,58.0,30.10,SE,129,0.0,0.0,63,0.00,,,0.00,weatherlink.com 1.10,2013-07-30 17:30:00,
2013-07-30 10:45:00,72.6,57.0,30.10,ESE,111,0.0,2.0,58,0.00,,,0.00,weatherlink.com 1.10,2013-07-30 17:45:00,
2013-07-30 11:00:00,73.7,58.0,30.09,SE,131,0.0,0.0,58,0.00,,,0.00,weatherlink.com 1.10,2013-07-30 18:00:00,
2013-07-30 11:15:00,74.4,59.0,30.09,SE,133,0.0,0.0,60,0.00,,,0.00,weatherlink.com 1.10,2013-07-30 18:15:00,
2013-07-30 11:30:00,76.1,57.0,30.09,ESE,108,0.0,0.0,52,0.00,,,0.00,weatherlink.com 1.10,2013-07-30 18:30:00,
2013-07-30 11:45:00,76.5,58.0,30.08,ESE,116,0.0,0.0,53,0.00,,,0.00,weatherlink.com 1.10,2013-07-30 18:45:00,
2013-07-30 12:00:00,76.8,57.0,30.07,ESE,117,0.0,0.0,51,0.00,,,0.00,weatherlink.com 1.10,2013-07-30 19:00:00,
2013-07-30 12:15:00,77.7,57.0,30.07,SE,128,0.0,0.0,49,0.00,,,0.00,weatherlink.com 1.10,2013-07-30 19:15:00,
2013-07-30 12:30:00,78.8,56.0,30.07,SE,125,0.0,0.0,46,0.00,,,0.00,weatherlink.com 1.10,2013-07-30 19:30:00,
2013-07-30 12:45:00,79.5,54.0,30.06,SE,127,0.0,0.0,42,0.00,,,0.00,weatherlink.com 1.10,2013-07-30 19:45:00,
2013-07-30 13:01:00,80.3,52.0,30.06,SE,128,0.0,1.0,37,0.00,,,0.00,weatherlink.com 1.10,2013-07-30 20:01:00,
2013-07-30 13:16:00,80.8,54.0,30.06,SE,127,0.0,1.0,39,0.00,,,0.00,weatherlink.com 1.10,2013-07-30 20:16:00,
2013-07-30 13:31:00,81.9,48.0,30.06,SSE,150,1.0,2.0,31,0.00,,,0.00,weatherlink.com 1.10,2013-07-30 20:31:00,
2013-07-30 13:46:00,82.3,51.0,30.06,SE,143,1.0,1.0,34,0.00,,,0.00,weatherlink.com 1.10,2013-07-30 20:46:00,
2013-07-30 14:01:00,83.0,49.0,30.05,ESE,120,0.0,0.0,31,0.00,,,0.00,weatherlink.com 1.10,2013-07-30 21:01:00,
2013-07-30 14:16:00,83.4,51.0,30.05,SE,129,0.0,0.0,33,0.00,,,0.00,weatherlink.com 1.10,2013-07-30 21:16:00,
2013-07-30 14:31:00,83.7,50.0,30.05,SE,125,0.0,1.0,31,0.00,,,0.00,weatherlink.com 1.10,2013-07-30 21:31:00,
2013-07-30 14:46:00,84.5,48.0,30.04,SSE,153,0.0,1.0,28,0.00,,,0.00,weatherlink.com 1.10,2013-07-30 21:46:00,
2013-07-30 15:01:00,85.1,44.0,30.04,SSE,148,1.0,2.0,24,0.00,,,0.00,weatherlink.com 1.10,2013-07-30 22:01:00,
2013-07-30 15:16:00,86.5,45.0,30.04,SE,145,0.0,1.0,23,0.00,,,0.00,weatherlink.com 1.10,2013-07-30 22:16:00,
2013-07-30 16:01:00,86.8,48.0,30.03,ESE,122,0.0,2.0,26,0.00,,,0.00,weatherlink.com 1.10,2013-07-30 23:01:00,
2013-07-30 16:16:00,85.9,47.0,30.03,SE,129,0.0,0.0,26,0.00,,,0.00,weatherlink.com 1.10,2013-07-30 23:16:00,
2013-07-30 16:31:00,81.7,56.0,30.02,SE,129,0.0,0.0,41,0.00,,,0.00,weatherlink.com 1.10,2013-07-30 23:31:00,
2013-07-30 17:01:00,80.2,56.0,30.02,SE,129,0.0,0.0,44,0.00,,,0.00,weatherlink.com 1.10,2013-07-31 00:01:00,
2013-07-30 17:16:00,80.9,61.0,30.02,SE,128,0.0,0.0,51,0.00,,,0.00,weatherlink.com 1.10,2013-07-31 00:16:00,
2013-07-30 17:31:00,78.5,58.0,30.02,SE,128,0.0,0.0,50,0.00,,,0.00,weatherlink.com 1.10,2013-07-31 00:31:00,
2013-07-30 17:46:00,75.9,58.0,30.03,SE,129,0.0,0.0,54,0.00,,,0.00,weatherlink.com 1.10,2013-07-31 00:46:00,
2013-07-30 18:01:00,75.6,59.0,30.03,SE,127,0.0,3.0,56,0.00,,,0.00,weatherlink.com 1.10,2013-07-31 01:01:00,
2013-07-30 18:16:00,76.0,58.0,30.03,SE,126,0.0,1.0,54,0.00,,,0.00,weatherlink.com 1.10,2013-07-31 01:16:00,
2013-07-30 18:31:00,74.0,61.0,30.03,SE,126,0.0,0.0,63,0.00,,,0.00,weatherlink.com 1.10,2013-07-31 01:31:00,
2013-07-30 18:46:00,72.9,56.0,30.04,ESE,120,0.0,2.0,55,0.00,,,0.00,weatherlink.com 1.10,2013-07-31 01:46:00,
2013-07-30 19:01:00,71.2,60.0,30.04,ESE,120,0.0,0.0,67,0.00,,,0.00,weatherlink.com 1.10,2013-07-31 02:01:00,
2013-07-30 19:16:00,69.4,59.0,30.04,ESE,120,0.0,0.0,70,0.00,,,0.00,weatherlink.com 1.10,2013-07-31 02:16:00,
2013-07-30 19:31:00,67.8,59.0,30.05,ESE,120,0.0,0.0,73,0.00,,,0.00,weatherlink.com 1.10,2013-07-31 02:31:00,
2013-07-30 20:01:00,65.7,58.0,30.06,SSE,148,0.0,0.0,76,0.00,,,0.00,weatherlink.com 1.10,2013-07-31 03:01:00,
2013-07-30 20:16:00,64.1,57.0,30.07,SSE,148,0.0,0.0,79,0.00,,,0.00,weatherlink.com 1.10,2013-07-31 03:16:00,
2013-07-30 20:31:00,63.1,57.0,30.07,SSE,148,0.0,0.0,80,0.00,,,0.00,weatherlink.com 1.10,2013-07-31 03:31:00,
2013-07-30 20:46:00,61.9,57.0,30.08,SSE,148,0.0,0.0,83,0.00,,,0.00,weatherlink.com 1.10,2013-07-31 03:46:00,
2013-07-30 21:01:00,60.5,56.0,30.09,SSE,148,0.0,0.0,85,0.00,,,0.00,weatherlink.com 1.10,2013-07-31 04:01:00,
2013-07-30 21:16:00,59.7,56.0,30.09,SSE,148,0.0,0.0,86,0.00,,,0.00,weatherlink.com 1.10,2013-07-31 04:16:00,
2013-07-30 21:31:00,58.7,55.0,30.10,SSE,148,0.0,0.0,86,0.00,,,0.00,weatherlink.com 1.10,2013-07-31 04:31:00,
2013-07-30 21:46:00,58.0,55.0,30.10,SSE,148,0.0,0.0,88,0.00,,,0.00,weatherlink.com 1.10,2013-07-31 04:46:00,
2013-07-30 22:01:00,57.1,54.0,30.11,SSE,148,0.0,0.0,89,0.00,,,0.00,weatherlink.com 1.10,2013-07-31 05:01:00,
2013-07-30 22:16:00,56.5,53.0,30.11,SSE,148,0.0,0.0,89,0.00,,,0.00,weatherlink.com 1.10,2013-07-31 05:16:00,
2013-07-30 22:31:00,56.0,53.0,30.11,SSE,148,0.0,0.0,90,0.00,,,0.00,weatherlink.com 1.10,2013-07-31 05:31:00,
2013-07-30 23:01:00,55.1,52.0,30.12,SSE,148,0.0,0.0,90,0.00,,,0.00,weatherlink.com 1.10,2013-07-31 06:01:00,
2013-07-30 23:47:00,54.1,52.0,30.13,SSE,148,0.0,0.0,92,0.00,,,0.00,weatherlink.com 1.10,2013-07-31 06:47:00,